sensor_id;sensor_type;location;lat;lon;timestamp;P1;durP1;ratioP1;P2;durP2;ratioP2
23614;SDS011;11985;49.404;7.734;2022-09-01T00:01:20;6.07;;;5.03;;
23614;SDS011;11985;49.404;7.734;2022-09-01T00:03:25;14.55;;;5.90;;
23614;SDS011;11985;49.404;7.734;2022-09-01T00:05:27;6.45;;;4.72;;
23614;SDS011;11985;49.404;7.734;2022-09-01T00:07:31;7.88;;;4.60;;
23614;SDS011;11985;49.404;7.734;2022-09-01T00:09:34;6.40;;;4.85;;
23614;SDS011;11985;49.404;7.734;2022-09-01T00:11:36;5.15;;;4.55;;
23614;SDS011;11985;49.404;7.734;2022-09-01T00:13:39;10.50;;;5.38;;
23614;SDS011;11985;49.404;7.734;2022-09-01T00:15:41;7.22;;;5.47;;
23614;SDS011;11985;49.404;7.734;2022-09-01T00:17:42;5.95;;;4.68;;
23614;SDS011;11985;49.404;7.734;2022-09-01T00:19:45;5.47;;;4.50;;
23614;SDS011;11985;49.404;7.734;2022-09-01T00:21:47;5.85;;;4.65;;
23614;SDS011;11985;49.404;7.734;2022-09-01T00:23:48;5.22;;;4.20;;
23614;SDS011;11985;49.404;7.734;2022-09-01T00:25:50;6.25;;;4.55;;
23614;SDS011;11985;49.404;7.734;2022-09-01T00:27:52;7.00;;;4.70;;
23614;SDS011;11985;49.404;7.734;2022-09-01T00:29:58;6.68;;;4.40;;
23614;SDS011;11985;49.404;7.734;2022-09-01T00:32:00;5.80;;;4.78;;
23614;SDS011;11985;49.404;7.734;2022-09-01T00:34:02;5.18;;;4.55;;
23614;SDS011;11985;49.404;7.734;2022-09-01T00:36:06;7.72;;;4.70;;
23614;SDS011;11985;49.404;7.734;2022-09-01T00:38:08;4.85;;;4.20;;
23614;SDS011;11985;49.404;7.734;2022-09-01T00:40:11;8.35;;;5.10;;
23614;SDS011;11985;49.404;7.734;2022-09-01T00:42:15;5.88;;;4.35;;
23614;SDS011;11985;49.404;7.734;2022-09-01T00:44:18;7.80;;;4.55;;
23614;SDS011;11985;49.404;7.734;2022-09-01T00:46:24;6.07;;;4.57;;
23614;SDS011;11985;49.404;7.734;2022-09-01T00:48:27;6.68;;;4.18;;
23614;SDS011;11985;49.404;7.734;2022-09-01T00:50:29;5.53;;;4.45;;
23614;SDS011;11985;49.404;7.734;2022-09-01T00:52:33;5.45;;;4.53;;
23614;SDS011;11985;49.404;7.734;2022-09-01T00:54:37;5.63;;;4.70;;
23614;SDS011;11985;49.404;7.734;2022-09-01T00:56:41;8.88;;;4.82;;
23614;SDS011;11985;49.404;7.734;2022-09-01T01:00:44;7.15;;;4.88;;
23614;SDS011;11985;49.404;7.734;2022-09-01T01:02:49;5.95;;;4.65;;
23614;SDS011;11985;49.404;7.734;2022-09-01T01:04:54;5.78;;;3.97;;
23614;SDS011;11985;49.404;7.734;2022-09-01T01:06:59;5.05;;;4.38;;
23614;SDS011;11985;49.404;7.734;2022-09-01T01:09:03;7.30;;;3.70;;
23614;SDS011;11985;49.404;7.734;2022-09-01T01:11:06;5.45;;;4.30;;
23614;SDS011;11985;49.404;7.734;2022-09-01T01:13:11;4.97;;;4.43;;
23614;SDS011;11985;49.404;7.734;2022-09-01T01:15:14;7.57;;;4.47;;
23614;SDS011;11985;49.404;7.734;2022-09-01T01:17:17;5.82;;;4.53;;
23614;SDS011;11985;49.404;7.734;2022-09-01T01:19:22;7.28;;;4.60;;
23614;SDS011;11985;49.404;7.734;2022-09-01T01:21:46;5.13;;;4.60;;
23614;SDS011;11985;49.404;7.734;2022-09-01T01:24:08;5.40;;;4.13;;
23614;SDS011;11985;49.404;7.734;2022-09-01T01:26:20;5.65;;;4.32;;
23614;SDS011;11985;49.404;7.734;2022-09-01T01:28:23;6.30;;;4.43;;
23614;SDS011;11985;49.404;7.734;2022-09-01T01:30:30;6.80;;;4.70;;
23614;SDS011;11985;49.404;7.734;2022-09-01T01:32:35;7.40;;;4.35;;
23614;SDS011;11985;49.404;7.734;2022-09-01T01:34:39;7.53;;;4.78;;
23614;SDS011;11985;49.404;7.734;2022-09-01T01:36:42;5.40;;;4.60;;
23614;SDS011;11985;49.404;7.734;2022-09-01T01:40:48;5.78;;;4.68;;
23614;SDS011;11985;49.404;7.734;2022-09-01T01:42:52;5.88;;;4.55;;
23614;SDS011;11985;49.404;7.734;2022-09-01T01:44:54;5.30;;;4.75;;
23614;SDS011;11985;49.404;7.734;2022-09-01T01:46:56;6.82;;;4.75;;
23614;SDS011;11985;49.404;7.734;2022-09-01T01:48:58;9.13;;;4.85;;
23614;SDS011;11985;49.404;7.734;2022-09-01T01:51:01;6.18;;;4.90;;
23614;SDS011;11985;49.404;7.734;2022-09-01T01:53:05;6.63;;;5.30;;
23614;SDS011;11985;49.404;7.734;2022-09-01T01:55:11;8.25;;;5.30;;
23614;SDS011;11985;49.404;7.734;2022-09-01T01:57:14;5.93;;;5.00;;
23614;SDS011;11985;49.404;7.734;2022-09-01T01:59:16;8.07;;;5.00;;
23614;SDS011;11985;49.404;7.734;2022-09-01T02:01:18;9.77;;;5.65;;
23614;SDS011;11985;49.404;7.734;2022-09-01T02:03:23;5.93;;;4.90;;
23614;SDS011;11985;49.404;7.734;2022-09-01T02:05:28;9.60;;;5.10;;
23614;SDS011;11985;49.404;7.734;2022-09-01T02:07:32;5.05;;;4.50;;
23614;SDS011;11985;49.404;7.734;2022-09-01T02:09:33;7.22;;;5.10;;
23614;SDS011;11985;49.404;7.734;2022-09-01T02:11:35;9.00;;;4.95;;
23614;SDS011;11985;49.404;7.734;2022-09-01T02:13:38;5.43;;;4.40;;
23614;SDS011;11985;49.404;7.734;2022-09-01T02:15:40;6.63;;;4.18;;
23614;SDS011;11985;49.404;7.734;2022-09-01T02:17:43;6.28;;;4.70;;
23614;SDS011;11985;49.404;7.734;2022-09-01T02:19:46;5.85;;;4.57;;
23614;SDS011;11985;49.404;7.734;2022-09-01T02:21:48;6.10;;;5.10;;
23614;SDS011;11985;49.404;7.734;2022-09-01T02:23:54;6.88;;;4.80;;
23614;SDS011;11985;49.404;7.734;2022-09-01T02:26:00;4.72;;;4.22;;
23614;SDS011;11985;49.404;7.734;2022-09-01T02:28:02;6.47;;;4.10;;
23614;SDS011;11985;49.404;7.734;2022-09-01T02:30:10;6.50;;;4.65;;
23614;SDS011;11985;49.404;7.734;2022-09-01T02:32:12;6.00;;;4.35;;
23614;SDS011;11985;49.404;7.734;2022-09-01T02:34:21;5.40;;;4.38;;
23614;SDS011;11985;49.404;7.734;2022-09-01T02:36:24;7.65;;;4.22;;
23614;SDS011;11985;49.404;7.734;2022-09-01T02:38:27;5.88;;;4.25;;
23614;SDS011;11985;49.404;7.734;2022-09-01T02:40:32;7.40;;;4.55;;
23614;SDS011;11985;49.404;7.734;2022-09-01T02:42:35;6.53;;;4.55;;
23614;SDS011;11985;49.404;7.734;2022-09-01T02:44:39;8.63;;;4.47;;
23614;SDS011;11985;49.404;7.734;2022-09-01T02:46:44;5.57;;;4.50;;
23614;SDS011;11985;49.404;7.734;2022-09-01T02:48:46;8.32;;;4.57;;
23614;SDS011;11985;49.404;7.734;2022-09-01T02:50:50;6.28;;;4.80;;
23614;SDS011;11985;49.404;7.734;2022-09-01T02:52:52;8.30;;;4.75;;
23614;SDS011;11985;49.404;7.734;2022-09-01T02:54:54;5.63;;;4.60;;
23614;SDS011;11985;49.404;7.734;2022-09-01T02:56:56;6.93;;;4.30;;
23614;SDS011;11985;49.404;7.734;2022-09-01T02:58:58;5.10;;;4.60;;
23614;SDS011;11985;49.404;7.734;2022-09-01T03:01:02;8.43;;;4.32;;
23614;SDS011;11985;49.404;7.734;2022-09-01T03:03:05;8.23;;;4.50;;
23614;SDS011;11985;49.404;7.734;2022-09-01T03:05:07;5.53;;;3.90;;
23614;SDS011;11985;49.404;7.734;2022-09-01T03:07:09;7.13;;;3.83;;
23614;SDS011;11985;49.404;7.734;2022-09-01T03:09:13;7.05;;;4.45;;
23614;SDS011;11985;49.404;7.734;2022-09-01T03:11:16;5.78;;;4.20;;
23614;SDS011;11985;49.404;7.734;2022-09-01T03:13:19;7.90;;;4.25;;
23614;SDS011;11985;49.404;7.734;2022-09-01T03:15:22;5.75;;;4.10;;
23614;SDS011;11985;49.404;7.734;2022-09-01T03:17:24;5.05;;;4.00;;
23614;SDS011;11985;49.404;7.734;2022-09-01T03:19:27;7.47;;;4.38;;
23614;SDS011;11985;49.404;7.734;2022-09-01T03:21:31;8.45;;;3.90;;
23614;SDS011;11985;49.404;7.734;2022-09-01T03:23:33;6.00;;;4.18;;
23614;SDS011;11985;49.404;7.734;2022-09-01T03:25:34;12.55;;;4.47;;
23614;SDS011;11985;49.404;7.734;2022-09-01T03:27:36;5.75;;;4.20;;
23614;SDS011;11985;49.404;7.734;2022-09-01T03:29:38;5.68;;;4.20;;
23614;SDS011;11985;49.404;7.734;2022-09-01T03:31:40;7.57;;;4.32;;
23614;SDS011;11985;49.404;7.734;2022-09-01T03:33:41;5.80;;;4.05;;
23614;SDS011;11985;49.404;7.734;2022-09-01T03:35:44;4.97;;;4.00;;
23614;SDS011;11985;49.404;7.734;2022-09-01T03:37:47;7.53;;;3.60;;
23614;SDS011;11985;49.404;7.734;2022-09-01T03:39:48;5.30;;;4.00;;
23614;SDS011;11985;49.404;7.734;2022-09-01T03:41:49;4.88;;;3.85;;
23614;SDS011;11985;49.404;7.734;2022-09-01T03:43:51;5.68;;;3.92;;
23614;SDS011;11985;49.404;7.734;2022-09-01T03:45:57;4.65;;;4.07;;
23614;SDS011;11985;49.404;7.734;2022-09-01T03:47:59;5.85;;;3.50;;
23614;SDS011;11985;49.404;7.734;2022-09-01T03:50:06;5.88;;;3.70;;
23614;SDS011;11985;49.404;7.734;2022-09-01T03:52:14;6.43;;;3.67;;
23614;SDS011;11985;49.404;7.734;2022-09-01T03:54:16;5.57;;;3.60;;
23614;SDS011;11985;49.404;7.734;2022-09-01T03:56:17;9.02;;;3.92;;
23614;SDS011;11985;49.404;7.734;2022-09-01T03:58:19;4.30;;;3.72;;
23614;SDS011;11985;49.404;7.734;2022-09-01T04:00:22;6.88;;;3.72;;
23614;SDS011;11985;49.404;7.734;2022-09-01T04:02:28;5.03;;;3.50;;
23614;SDS011;11985;49.404;7.734;2022-09-01T04:04:30;5.18;;;3.63;;
23614;SDS011;11985;49.404;7.734;2022-09-01T04:06:32;7.43;;;3.47;;
23614;SDS011;11985;49.404;7.734;2022-09-01T04:08:35;5.65;;;3.35;;
23614;SDS011;11985;49.404;7.734;2022-09-01T04:10:38;4.93;;;3.50;;
23614;SDS011;11985;49.404;7.734;2022-09-01T04:12:48;6.03;;;3.90;;
23614;SDS011;11985;49.404;7.734;2022-09-01T04:14:51;6.18;;;3.92;;
23614;SDS011;11985;49.404;7.734;2022-09-01T04:16:52;5.90;;;3.90;;
23614;SDS011;11985;49.404;7.734;2022-09-01T04:19:11;5.45;;;3.83;;
23614;SDS011;11985;49.404;7.734;2022-09-01T04:21:19;4.40;;;3.42;;
23614;SDS011;11985;49.404;7.734;2022-09-01T04:23:22;9.35;;;3.65;;
23614;SDS011;11985;49.404;7.734;2022-09-01T04:25:27;6.47;;;3.70;;
23614;SDS011;11985;49.404;7.734;2022-09-01T04:27:29;4.30;;;3.75;;
23614;SDS011;11985;49.404;7.734;2022-09-01T04:29:31;5.70;;;3.75;;
23614;SDS011;11985;49.404;7.734;2022-09-01T04:31:32;5.53;;;3.60;;
23614;SDS011;11985;49.404;7.734;2022-09-01T04:33:34;4.57;;;3.70;;
23614;SDS011;11985;49.404;7.734;2022-09-01T04:35:38;4.78;;;4.03;;
23614;SDS011;11985;49.404;7.734;2022-09-01T04:37:40;6.97;;;3.65;;
23614;SDS011;11985;49.404;7.734;2022-09-01T04:39:42;7.82;;;3.90;;
23614;SDS011;11985;49.404;7.734;2022-09-01T04:41:52;4.45;;;3.67;;
23614;SDS011;11985;49.404;7.734;2022-09-01T04:43:54;5.78;;;3.78;;
23614;SDS011;11985;49.404;7.734;2022-09-01T04:45:57;4.90;;;3.58;;
23614;SDS011;11985;49.404;7.734;2022-09-01T04:50:00;8.23;;;3.97;;
23614;SDS011;11985;49.404;7.734;2022-09-01T04:52:02;5.95;;;4.22;;
23614;SDS011;11985;49.404;7.734;2022-09-01T04:54:04;5.88;;;3.88;;
23614;SDS011;11985;49.404;7.734;2022-09-01T04:56:11;5.15;;;3.45;;
23614;SDS011;11985;49.404;7.734;2022-09-01T04:58:15;5.60;;;3.50;;
23614;SDS011;11985;49.404;7.734;2022-09-01T05:00:19;5.70;;;4.28;;
23614;SDS011;11985;49.404;7.734;2022-09-01T05:02:24;9.23;;;4.47;;
23614;SDS011;11985;49.404;7.734;2022-09-01T05:04:29;5.22;;;3.70;;
23614;SDS011;11985;49.404;7.734;2022-09-01T05:06:32;8.13;;;3.80;;
23614;SDS011;11985;49.404;7.734;2022-09-01T05:08:38;5.47;;;3.95;;
23614;SDS011;11985;49.404;7.734;2022-09-01T05:10:41;6.38;;;3.63;;
23614;SDS011;11985;49.404;7.734;2022-09-01T05:12:45;4.72;;;3.55;;
23614;SDS011;11985;49.404;7.734;2022-09-01T05:14:48;9.55;;;3.92;;
23614;SDS011;11985;49.404;7.734;2022-09-01T05:16:51;5.55;;;3.80;;
23614;SDS011;11985;49.404;7.734;2022-09-01T05:18:57;5.55;;;4.03;;
23614;SDS011;11985;49.404;7.734;2022-09-01T05:21:03;5.25;;;3.60;;
23614;SDS011;11985;49.404;7.734;2022-09-01T05:23:12;6.15;;;3.50;;
23614;SDS011;11985;49.404;7.734;2022-09-01T05:25:13;5.45;;;3.67;;
23614;SDS011;11985;49.404;7.734;2022-09-01T05:27:15;5.88;;;3.60;;
23614;SDS011;11985;49.404;7.734;2022-09-01T05:29:18;6.05;;;3.55;;
23614;SDS011;11985;49.404;7.734;2022-09-01T05:31:21;6.90;;;4.00;;
23614;SDS011;11985;49.404;7.734;2022-09-01T05:33:24;6.07;;;3.22;;
23614;SDS011;11985;49.404;7.734;2022-09-01T05:35:25;4.97;;;3.58;;
23614;SDS011;11985;49.404;7.734;2022-09-01T05:37:27;6.88;;;3.72;;
23614;SDS011;11985;49.404;7.734;2022-09-01T05:39:29;6.00;;;3.40;;
23614;SDS011;11985;49.404;7.734;2022-09-01T05:41:30;5.03;;;3.92;;
23614;SDS011;11985;49.404;7.734;2022-09-01T05:43:34;4.57;;;3.58;;
23614;SDS011;11985;49.404;7.734;2022-09-01T05:45:38;6.72;;;3.75;;
23614;SDS011;11985;49.404;7.734;2022-09-01T05:47:44;7.88;;;3.88;;
23614;SDS011;11985;49.404;7.734;2022-09-01T05:49:45;4.07;;;3.30;;
23614;SDS011;11985;49.404;7.734;2022-09-01T05:51:49;7.85;;;3.80;;
23614;SDS011;11985;49.404;7.734;2022-09-01T05:53:53;5.57;;;3.47;;
23614;SDS011;11985;49.404;7.734;2022-09-01T05:55:58;5.93;;;3.38;;
23614;SDS011;11985;49.404;7.734;2022-09-01T05:58:05;4.90;;;3.45;;
23614;SDS011;11985;49.404;7.734;2022-09-01T06:00:12;5.80;;;3.35;;
23614;SDS011;11985;49.404;7.734;2022-09-01T06:02:16;7.95;;;3.20;;
23614;SDS011;11985;49.404;7.734;2022-09-01T06:04:19;3.70;;;3.13;;
23614;SDS011;11985;49.404;7.734;2022-09-01T06:06:24;7.93;;;3.42;;
23614;SDS011;11985;49.404;7.734;2022-09-01T06:08:27;5.72;;;3.50;;
23614;SDS011;11985;49.404;7.734;2022-09-01T06:10:29;3.88;;;3.45;;
23614;SDS011;11985;49.404;7.734;2022-09-01T06:12:31;8.02;;;3.67;;
23614;SDS011;11985;49.404;7.734;2022-09-01T06:14:33;3.33;;;3.00;;
23614;SDS011;11985;49.404;7.734;2022-09-01T06:16:35;5.20;;;3.55;;
23614;SDS011;11985;49.404;7.734;2022-09-01T06:18:36;4.53;;;3.40;;
23614;SDS011;11985;49.404;7.734;2022-09-01T06:20:39;4.30;;;3.30;;
23614;SDS011;11985;49.404;7.734;2022-09-01T06:22:42;4.53;;;2.80;;
23614;SDS011;11985;49.404;7.734;2022-09-01T06:26:47;4.40;;;3.10;;
23614;SDS011;11985;49.404;7.734;2022-09-01T06:28:48;4.60;;;3.17;;
23614;SDS011;11985;49.404;7.734;2022-09-01T06:30:53;4.50;;;3.03;;
23614;SDS011;11985;49.404;7.734;2022-09-01T06:32:56;7.20;;;3.28;;
23614;SDS011;11985;49.404;7.734;2022-09-01T06:35:00;5.82;;;3.35;;
23614;SDS011;11985;49.404;7.734;2022-09-01T06:37:06;4.50;;;3.35;;
23614;SDS011;11985;49.404;7.734;2022-09-01T06:39:07;5.82;;;3.13;;
23614;SDS011;11985;49.404;7.734;2022-09-01T06:41:13;7.88;;;2.70;;
23614;SDS011;11985;49.404;7.734;2022-09-01T06:43:15;8.07;;;3.53;;
23614;SDS011;11985;49.404;7.734;2022-09-01T06:45:19;4.53;;;2.85;;
23614;SDS011;11985;49.404;7.734;2022-09-01T06:47:22;6.28;;;3.40;;
23614;SDS011;11985;49.404;7.734;2022-09-01T06:49:27;6.20;;;3.17;;
23614;SDS011;11985;49.404;7.734;2022-09-01T06:51:33;3.35;;;2.67;;
23614;SDS011;11985;49.404;7.734;2022-09-01T06:53:37;5.22;;;3.22;;
23614;SDS011;11985;49.404;7.734;2022-09-01T06:55:39;4.82;;;3.33;;
23614;SDS011;11985;49.404;7.734;2022-09-01T06:57:42;4.75;;;2.92;;
23614;SDS011;11985;49.404;7.734;2022-09-01T06:59:53;3.35;;;3.05;;
23614;SDS011;11985;49.404;7.734;2022-09-01T07:01:55;3.83;;;3.38;;
23614;SDS011;11985;49.404;7.734;2022-09-01T07:03:59;7.07;;;3.22;;
23614;SDS011;11985;49.404;7.734;2022-09-01T07:06:03;5.47;;;3.10;;
23614;SDS011;11985;49.404;7.734;2022-09-01T07:08:06;6.43;;;3.58;;
23614;SDS011;11985;49.404;7.734;2022-09-01T07:10:11;5.32;;;3.20;;
23614;SDS011;11985;49.404;7.734;2022-09-01T07:12:14;3.75;;;3.10;;
23614;SDS011;11985;49.404;7.734;2022-09-01T07:14:18;5.13;;;3.47;;
23614;SDS011;11985;49.404;7.734;2022-09-01T07:16:21;6.57;;;3.33;;
23614;SDS011;11985;49.404;7.734;2022-09-01T07:18:25;6.97;;;3.83;;
23614;SDS011;11985;49.404;7.734;2022-09-01T07:20:27;3.90;;;3.00;;
23614;SDS011;11985;49.404;7.734;2022-09-01T07:22:38;5.18;;;3.38;;
23614;SDS011;11985;49.404;7.734;2022-09-01T07:24:40;4.65;;;3.25;;
23614;SDS011;11985;49.404;7.734;2022-09-01T07:26:44;4.10;;;3.40;;
23614;SDS011;11985;49.404;7.734;2022-09-01T07:28:50;4.05;;;3.10;;
23614;SDS011;11985;49.404;7.734;2022-09-01T07:30:52;8.00;;;2.88;;
23614;SDS011;11985;49.404;7.734;2022-09-01T07:32:53;5.47;;;3.60;;
23614;SDS011;11985;49.404;7.734;2022-09-01T07:34:55;8.32;;;3.83;;
23614;SDS011;11985;49.404;7.734;2022-09-01T07:36:57;5.50;;;3.80;;
23614;SDS011;11985;49.404;7.734;2022-09-01T07:38:59;8.93;;;4.55;;
23614;SDS011;11985;49.404;7.734;2022-09-01T07:43:03;7.18;;;4.75;;
23614;SDS011;11985;49.404;7.734;2022-09-01T07:45:09;5.38;;;3.97;;
23614;SDS011;11985;49.404;7.734;2022-09-01T07:47:11;5.32;;;3.47;;
23614;SDS011;11985;49.404;7.734;2022-09-01T07:49:14;6.53;;;4.03;;
23614;SDS011;11985;49.404;7.734;2022-09-01T07:51:17;5.40;;;4.15;;
23614;SDS011;11985;49.404;7.734;2022-09-01T07:53:23;5.15;;;3.80;;
23614;SDS011;11985;49.404;7.734;2022-09-01T07:55:28;3.75;;;3.35;;
23614;SDS011;11985;49.404;7.734;2022-09-01T07:57:30;5.38;;;3.58;;
23614;SDS011;11985;49.404;7.734;2022-09-01T07:59:33;5.20;;;4.15;;
23614;SDS011;11985;49.404;7.734;2022-09-01T08:01:36;8.40;;;4.30;;
23614;SDS011;11985;49.404;7.734;2022-09-01T08:03:37;5.65;;;3.65;;
23614;SDS011;11985;49.404;7.734;2022-09-01T08:05:40;6.78;;;4.65;;
23614;SDS011;11985;49.404;7.734;2022-09-01T08:07:42;6.15;;;4.00;;
23614;SDS011;11985;49.404;7.734;2022-09-01T08:09:46;7.18;;;4.80;;
23614;SDS011;11985;49.404;7.734;2022-09-01T08:11:47;6.20;;;4.45;;
23614;SDS011;11985;49.404;7.734;2022-09-01T08:13:49;6.10;;;4.18;;
23614;SDS011;11985;49.404;7.734;2022-09-01T08:15:54;5.07;;;4.47;;
23614;SDS011;11985;49.404;7.734;2022-09-01T08:17:55;7.65;;;5.18;;
23614;SDS011;11985;49.404;7.734;2022-09-01T08:19:57;6.72;;;5.32;;
23614;SDS011;11985;49.404;7.734;2022-09-01T08:22:00;6.60;;;4.57;;
23614;SDS011;11985;49.404;7.734;2022-09-01T08:24:02;7.82;;;5.45;;
23614;SDS011;11985;49.404;7.734;2022-09-01T08:26:04;9.68;;;5.32;;
23614;SDS011;11985;49.404;7.734;2022-09-01T08:28:07;9.82;;;5.97;;
23614;SDS011;11985;49.404;7.734;2022-09-01T08:32:13;6.88;;;5.50;;
23614;SDS011;11985;49.404;7.734;2022-09-01T08:34:15;8.48;;;5.70;;
23614;SDS011;11985;49.404;7.734;2022-09-01T08:36:17;6.10;;;5.10;;
23614;SDS011;11985;49.404;7.734;2022-09-01T08:38:18;6.28;;;5.28;;
23614;SDS011;11985;49.404;7.734;2022-09-01T08:40:20;6.65;;;5.82;;
23614;SDS011;11985;49.404;7.734;2022-09-01T08:42:36;6.70;;;5.47;;
23614;SDS011;11985;49.404;7.734;2022-09-01T08:44:45;7.32;;;5.07;;
23614;SDS011;11985;49.404;7.734;2022-09-01T08:46:57;6.30;;;5.50;;
23614;SDS011;11985;49.404;7.734;2022-09-01T08:49:06;7.13;;;5.68;;
23614;SDS011;11985;49.404;7.734;2022-09-01T08:51:17;6.65;;;4.55;;
23614;SDS011;11985;49.404;7.734;2022-09-01T08:53:24;7.70;;;5.25;;
23614;SDS011;11985;49.404;7.734;2022-09-01T08:55:30;7.75;;;5.28;;
23614;SDS011;11985;49.404;7.734;2022-09-01T08:57:38;6.53;;;5.03;;
23614;SDS011;11985;49.404;7.734;2022-09-01T08:59:42;7.28;;;5.15;;
23614;SDS011;11985;49.404;7.734;2022-09-01T09:01:45;5.05;;;4.55;;
23614;SDS011;11985;49.404;7.734;2022-09-01T09:04:02;4.93;;;4.33;;
23614;SDS011;11985;49.404;7.734;2022-09-01T09:06:16;5.82;;;4.80;;
23614;SDS011;11985;49.404;7.734;2022-09-01T09:08:37;11.25;;;5.38;;
23614;SDS011;11985;49.404;7.734;2022-09-01T09:10:50;6.25;;;4.70;;
23614;SDS011;11985;49.404;7.734;2022-09-01T09:13:01;6.25;;;4.38;;
23614;SDS011;11985;49.404;7.734;2022-09-01T09:15:12;5.85;;;4.40;;
23614;SDS011;11985;49.404;7.734;2022-09-01T09:17:21;7.50;;;4.50;;
23614;SDS011;11985;49.404;7.734;2022-09-01T09:19:28;7.82;;;4.47;;
23614;SDS011;11985;49.404;7.734;2022-09-01T09:21:32;9.30;;;4.70;;
23614;SDS011;11985;49.404;7.734;2022-09-01T09:23:38;8.05;;;5.25;;
23614;SDS011;11985;49.404;7.734;2022-09-01T09:25:42;6.55;;;4.63;;
23614;SDS011;11985;49.404;7.734;2022-09-01T09:27:44;14.93;;;4.90;;
23614;SDS011;11985;49.404;7.734;2022-09-01T09:29:47;7.22;;;4.60;;
23614;SDS011;11985;49.404;7.734;2022-09-01T09:32:00;9.48;;;4.88;;
23614;SDS011;11985;49.404;7.734;2022-09-01T09:34:04;7.55;;;5.07;;
23614;SDS011;11985;49.404;7.734;2022-09-01T09:36:20;7.07;;;4.78;;
23614;SDS011;11985;49.404;7.734;2022-09-01T09:38:24;5.32;;;4.65;;
23614;SDS011;11985;49.404;7.734;2022-09-01T09:40:29;5.82;;;4.40;;
23614;SDS011;11985;49.404;7.734;2022-09-01T09:42:30;6.00;;;4.50;;
23614;SDS011;11985;49.404;7.734;2022-09-01T09:46:34;7.50;;;4.15;;
23614;SDS011;11985;49.404;7.734;2022-09-01T09:48:38;5.88;;;4.20;;
23614;SDS011;11985;49.404;7.734;2022-09-01T09:50:42;7.05;;;4.60;;
23614;SDS011;11985;49.404;7.734;2022-09-01T09:52:45;5.00;;;4.50;;
23614;SDS011;11985;49.404;7.734;2022-09-01T09:54:58;5.97;;;4.28;;
23614;SDS011;11985;49.404;7.734;2022-09-01T09:57:04;6.10;;;4.50;;
23614;SDS011;11985;49.404;7.734;2022-09-01T09:59:16;5.63;;;4.07;;
23614;SDS011;11985;49.404;7.734;2022-09-01T10:01:27;5.60;;;4.05;;
23614;SDS011;11985;49.404;7.734;2022-09-01T10:03:35;8.18;;;4.20;;
23614;SDS011;11985;49.404;7.734;2022-09-01T10:05:44;6.15;;;4.30;;
23614;SDS011;11985;49.404;7.734;2022-09-01T10:07:49;5.47;;;4.03;;
23614;SDS011;11985;49.404;7.734;2022-09-01T10:09:51;4.38;;;3.85;;
23614;SDS011;11985;49.404;7.734;2022-09-01T10:11:55;5.97;;;3.83;;
23614;SDS011;11985;49.404;7.734;2022-09-01T10:13:58;6.53;;;3.80;;
23614;SDS011;11985;49.404;7.734;2022-09-01T10:18:04;5.22;;;3.55;;
23614;SDS011;11985;49.404;7.734;2022-09-01T10:20:12;4.03;;;3.53;;
23614;SDS011;11985;49.404;7.734;2022-09-01T10:22:17;6.03;;;3.90;;
23614;SDS011;11985;49.404;7.734;2022-09-01T10:24:22;3.78;;;3.35;;
23614;SDS011;11985;49.404;7.734;2022-09-01T10:26:30;7.70;;;4.32;;
23614;SDS011;11985;49.404;7.734;2022-09-01T10:28:37;4.78;;;3.20;;
23614;SDS011;11985;49.404;7.734;2022-09-01T10:30:47;5.95;;;3.60;;
23614;SDS011;11985;49.404;7.734;2022-09-01T10:32:52;5.03;;;4.10;;
23614;SDS011;11985;49.404;7.734;2022-09-01T10:34:55;4.72;;;3.75;;
23614;SDS011;11985;49.404;7.734;2022-09-01T10:36:57;4.63;;;4.00;;
23614;SDS011;11985;49.404;7.734;2022-09-01T10:39:00;4.68;;;3.45;;
23614;SDS011;11985;49.404;7.734;2022-09-01T10:41:03;4.00;;;3.25;;
23614;SDS011;11985;49.404;7.734;2022-09-01T10:43:24;6.65;;;3.42;;
23614;SDS011;11985;49.404;7.734;2022-09-01T10:45:31;4.30;;;3.80;;
23614;SDS011;11985;49.404;7.734;2022-09-01T10:47:34;5.35;;;3.40;;
23614;SDS011;11985;49.404;7.734;2022-09-01T10:52:02;5.13;;;3.92;;
23614;SDS011;11985;49.404;7.734;2022-09-01T10:54:03;4.50;;;3.40;;
23614;SDS011;11985;49.404;7.734;2022-09-01T10:56:08;5.18;;;3.80;;
23614;SDS011;11985;49.404;7.734;2022-09-01T11:00:51;4.40;;;3.53;;
23614;SDS011;11985;49.404;7.734;2022-09-01T11:05:34;4.60;;;3.45;;
23614;SDS011;11985;49.404;7.734;2022-09-01T11:10:31;5.00;;;3.75;;
23614;SDS011;11985;49.404;7.734;2022-09-01T11:12:41;4.57;;;3.70;;
23614;SDS011;11985;49.404;7.734;2022-09-01T11:14:51;7.18;;;4.13;;
23614;SDS011;11985;49.404;7.734;2022-09-01T11:17:09;5.25;;;3.90;;
23614;SDS011;11985;49.404;7.734;2022-09-01T11:19:32;4.80;;;3.78;;
23614;SDS011;11985;49.404;7.734;2022-09-01T11:21:39;5.47;;;3.72;;
23614;SDS011;11985;49.404;7.734;2022-09-01T11:23:40;5.90;;;3.97;;
23614;SDS011;11985;49.404;7.734;2022-09-01T11:25:42;4.80;;;3.95;;
23614;SDS011;11985;49.404;7.734;2022-09-01T11:27:57;5.97;;;3.72;;
23614;SDS011;11985;49.404;7.734;2022-09-01T11:30:02;7.25;;;3.90;;
23614;SDS011;11985;49.404;7.734;2022-09-01T11:32:09;6.13;;;4.03;;
23614;SDS011;11985;49.404;7.734;2022-09-01T11:34:13;3.90;;;3.50;;
23614;SDS011;11985;49.404;7.734;2022-09-01T11:38:48;5.35;;;3.97;;
23614;SDS011;11985;49.404;7.734;2022-09-01T11:40:53;3.75;;;3.45;;
23614;SDS011;11985;49.404;7.734;2022-09-01T11:42:56;5.72;;;3.60;;
23614;SDS011;11985;49.404;7.734;2022-09-01T11:45:01;3.40;;;3.10;;
23614;SDS011;11985;49.404;7.734;2022-09-01T11:47:06;3.83;;;3.42;;
23614;SDS011;11985;49.404;7.734;2022-09-01T11:49:22;7.32;;;3.65;;
23614;SDS011;11985;49.404;7.734;2022-09-01T11:51:36;5.45;;;3.38;;
23614;SDS011;11985;49.404;7.734;2022-09-01T11:53:42;4.10;;;3.70;;
23614;SDS011;11985;49.404;7.734;2022-09-01T11:55:46;6.95;;;3.33;;
23614;SDS011;11985;49.404;7.734;2022-09-01T11:57:49;4.65;;;3.20;;
23614;SDS011;11985;49.404;7.734;2022-09-01T11:59:51;4.85;;;3.88;;
23614;SDS011;11985;49.404;7.734;2022-09-01T12:01:55;3.28;;;2.92;;
23614;SDS011;11985;49.404;7.734;2022-09-01T12:04:06;5.22;;;3.05;;
23614;SDS011;11985;49.404;7.734;2022-09-01T12:06:20;6.75;;;3.13;;
23614;SDS011;11985;49.404;7.734;2022-09-01T12:08:25;4.82;;;3.53;;
23614;SDS011;11985;49.404;7.734;2022-09-01T12:10:30;5.07;;;3.25;;
23614;SDS011;11985;49.404;7.734;2022-09-01T12:12:35;3.72;;;3.05;;
23614;SDS011;11985;49.404;7.734;2022-09-01T12:14:39;3.53;;;2.85;;
23614;SDS011;11985;49.404;7.734;2022-09-01T12:18:43;3.30;;;2.88;;
23614;SDS011;11985;49.404;7.734;2022-09-01T12:20:47;4.60;;;2.97;;
23614;SDS011;11985;49.404;7.734;2022-09-01T12:22:50;4.03;;;2.67;;
23614;SDS011;11985;49.404;7.734;2022-09-01T12:26:54;4.38;;;3.05;;
23614;SDS011;11985;49.404;7.734;2022-09-01T12:28:58;5.15;;;3.15;;
23614;SDS011;11985;49.404;7.734;2022-09-01T12:31:01;7.47;;;2.72;;
23614;SDS011;11985;49.404;7.734;2022-09-01T12:33:05;3.25;;;2.67;;
23614;SDS011;11985;49.404;7.734;2022-09-01T12:35:13;4.28;;;2.65;;
23614;SDS011;11985;49.404;7.734;2022-09-01T12:37:19;3.17;;;2.78;;
23614;SDS011;11985;49.404;7.734;2022-09-01T12:39:23;6.35;;;3.00;;
23614;SDS011;11985;49.404;7.734;2022-09-01T12:41:30;3.13;;;2.65;;
23614;SDS011;11985;49.404;7.734;2022-09-01T12:43:35;6.22;;;3.28;;
23614;SDS011;11985;49.404;7.734;2022-09-01T12:45:42;3.60;;;2.60;;
23614;SDS011;11985;49.404;7.734;2022-09-01T12:47:48;3.95;;;2.95;;
23614;SDS011;11985;49.404;7.734;2022-09-01T12:49:50;3.33;;;3.03;;
23614;SDS011;11985;49.404;7.734;2022-09-01T12:54:06;5.80;;;3.13;;
23614;SDS011;11985;49.404;7.734;2022-09-01T12:58:31;3.30;;;2.80;;
23614;SDS011;11985;49.404;7.734;2022-09-01T13:00:33;3.35;;;3.00;;
23614;SDS011;11985;49.404;7.734;2022-09-01T13:02:38;3.95;;;3.10;;
23614;SDS011;11985;49.404;7.734;2022-09-01T13:04:42;3.17;;;2.85;;
23614;SDS011;11985;49.404;7.734;2022-09-01T13:06:44;3.22;;;2.65;;
23614;SDS011;11985;49.404;7.734;2022-09-01T13:08:46;4.43;;;2.90;;